sensor_id;sensor_type;location;lat;lon;timestamp;P1;durP1;ratioP1;P2;durP2;ratioP2
22068;SDS011;13887;57.196;-2.100;2023-08-24T00:00:29;12.90;;;12.50;;
22068;SDS011;13887;57.196;-2.100;2023-08-24T00:02:56;12.13;;;11.73;;
22068;SDS011;13887;57.196;-2.100;2023-08-24T00:05:24;12.50;;;12.10;;
22068;SDS011;13887;57.196;-2.100;2023-08-24T00:07:52;12.50;;;12.10;;
22068;SDS011;13887;57.196;-2.100;2023-08-24T00:10:20;12.27;;;11.87;;
22068;SDS011;13887;57.196;-2.100;2023-08-24T00:12:47;12.40;;;12.00;;
22068;SDS011;13887;57.196;-2.100;2023-08-24T00:15:14;13.03;;;12.63;;
22068;SDS011;13887;57.196;-2.100;2023-08-24T00:17:42;12.50;;;12.10;;
22068;SDS011;13887;57.196;-2.100;2023-08-24T00:20:09;12.90;;;12.50;;
22068;SDS011;13887;57.196;-2.100;2023-08-24T00:22:38;12.47;;;12.07;;
22068;SDS011;13887;57.196;-2.100;2023-08-24T00:25:06;12.67;;;12.27;;
22068;SDS011;13887;57.196;-2.100;2023-08-24T00:27:35;12.03;;;11.63;;
22068;SDS011;13887;57.196;-2.100;2023-08-24T00:30:03;12.50;;;12.10;;
22068;SDS011;13887;57.196;-2.100;2023-08-24T00:32:31;12.63;;;12.23;;
22068;SDS011;13887;57.196;-2.100;2023-08-24T00:35:01;12.20;;;11.80;;
22068;SDS011;13887;57.196;-2.100;2023-08-24T00:37:29;12.77;;;12.37;;
22068;SDS011;13887;57.196;-2.100;2023-08-24T00:39:59;12.30;;;11.90;;
22068;SDS011;13887;57.196;-2.100;2023-08-24T00:42:30;12.67;;;12.27;;
22068;SDS011;13887;57.196;-2.100;2023-08-24T00:44:59;12.70;;;12.30;;
22068;SDS011;13887;57.196;-2.100;2023-08-24T00:47:27;12.47;;;12.07;;
22068;SDS011;13887;57.196;-2.100;2023-08-24T00:49:54;12.53;;;12.13;;
22068;SDS011;13887;57.196;-2.100;2023-08-24T00:52:22;12.67;;;12.27;;
22068;SDS011;13887;57.196;-2.100;2023-08-24T00:54:50;12.60;;;12.20;;
22068;SDS011;13887;57.196;-2.100;2023-08-24T00:57:18;12.43;;;12.03;;
22068;SDS011;13887;57.196;-2.100;2023-08-24T00:59:46;12.77;;;12.37;;
22068;SDS011;13887;57.196;-2.100;2023-08-24T01:02:13;12.87;;;12.47;;
22068;SDS011;13887;57.196;-2.100;2023-08-24T01:04:41;12.53;;;12.13;;
22068;SDS011;13887;57.196;-2.100;2023-08-24T01:07:12;12.50;;;12.10;;
22068;SDS011;13887;57.196;-2.100;2023-08-24T01:09:40;12.63;;;12.23;;
22068;SDS011;13887;57.196;-2.100;2023-08-24T01:12:15;12.43;;;12.03;;
22068;SDS011;13887;57.196;-2.100;2023-08-24T01:15:02;12.50;;;12.10;;
22068;SDS011;13887;57.196;-2.100;2023-08-24T01:17:35;12.60;;;12.20;;
22068;SDS011;13887;57.196;-2.100;2023-08-24T01:20:05;12.80;;;12.40;;
22068;SDS011;13887;57.196;-2.100;2023-08-24T01:22:37;12.90;;;12.50;;
22068;SDS011;13887;57.196;-2.100;2023-08-24T01:27:42;12.23;;;11.83;;
22068;SDS011;13887;57.196;-2.100;2023-08-24T01:30:10;12.40;;;12.00;;
22068;SDS011;13887;57.196;-2.100;2023-08-24T01:32:38;12.70;;;12.30;;
22068;SDS011;13887;57.196;-2.100;2023-08-24T01:35:07;12.37;;;11.97;;
22068;SDS011;13887;57.196;-2.100;2023-08-24T01:37:36;12.43;;;12.03;;
22068;SDS011;13887;57.196;-2.100;2023-08-24T01:40:05;12.50;;;12.10;;
22068;SDS011;13887;57.196;-2.100;2023-08-24T01:42:43;12.27;;;11.87;;
22068;SDS011;13887;57.196;-2.100;2023-08-24T01:45:18;12.27;;;11.87;;
22068;SDS011;13887;57.196;-2.100;2023-08-24T01:47:47;12.23;;;11.83;;
22068;SDS011;13887;57.196;-2.100;2023-08-24T01:50:16;11.90;;;11.50;;
22068;SDS011;13887;57.196;-2.100;2023-08-24T01:52:44;12.40;;;12.00;;
22068;SDS011;13887;57.196;-2.100;2023-08-24T01:55:11;12.10;;;11.70;;
22068;SDS011;13887;57.196;-2.100;2023-08-24T01:57:42;12.60;;;12.20;;
22068;SDS011;13887;57.196;-2.100;2023-08-24T02:00:09;12.00;;;11.60;;
22068;SDS011;13887;57.196;-2.100;2023-08-24T02:02:41;12.23;;;11.83;;
22068;SDS011;13887;57.196;-2.100;2023-08-24T02:05:09;12.00;;;11.60;;
22068;SDS011;13887;57.196;-2.100;2023-08-24T02:07:38;12.00;;;11.60;;
22068;SDS011;13887;57.196;-2.100;2023-08-24T02:10:06;12.30;;;11.90;;
22068;SDS011;13887;57.196;-2.100;2023-08-24T02:12:34;12.30;;;11.90;;
22068;SDS011;13887;57.196;-2.100;2023-08-24T02:15:03;12.43;;;12.03;;
22068;SDS011;13887;57.196;-2.100;2023-08-24T02:17:30;12.60;;;12.20;;
22068;SDS011;13887;57.196;-2.100;2023-08-24T02:19:58;12.27;;;11.87;;
22068;SDS011;13887;57.196;-2.100;2023-08-24T02:22:25;12.50;;;12.10;;
22068;SDS011;13887;57.196;-2.100;2023-08-24T02:24:52;12.40;;;12.00;;
22068;SDS011;13887;57.196;-2.100;2023-08-24T02:27:20;12.20;;;11.80;;
22068;SDS011;13887;57.196;-2.100;2023-08-24T02:29:47;12.50;;;12.10;;
22068;SDS011;13887;57.196;-2.100;2023-08-24T02:32:15;12.70;;;12.30;;
22068;SDS011;13887;57.196;-2.100;2023-08-24T02:34:42;12.07;;;11.67;;
22068;SDS011;13887;57.196;-2.100;2023-08-24T02:37:10;12.20;;;11.80;;
22068;SDS011;13887;57.196;-2.100;2023-08-24T02:39:37;12.10;;;11.70;;
22068;SDS011;13887;57.196;-2.100;2023-08-24T02:42:05;12.40;;;12.00;;
22068;SDS011;13887;57.196;-2.100;2023-08-24T02:44:32;12.10;;;11.70;;
22068;SDS011;13887;57.196;-2.100;2023-08-24T02:47:00;12.77;;;12.37;;
22068;SDS011;13887;57.196;-2.100;2023-08-24T02:49:29;11.87;;;11.47;;
22068;SDS011;13887;57.196;-2.100;2023-08-24T02:51:56;12.43;;;12.03;;
22068;SDS011;13887;57.196;-2.100;2023-08-24T02:54:24;12.30;;;11.90;;
22068;SDS011;13887;57.196;-2.100;2023-08-24T02:56:51;12.37;;;11.97;;
22068;SDS011;13887;57.196;-2.100;2023-08-24T02:59:18;12.40;;;12.00;;
22068;SDS011;13887;57.196;-2.100;2023-08-24T03:01:47;11.90;;;11.50;;
22068;SDS011;13887;57.196;-2.100;2023-08-24T03:04:15;12.40;;;12.00;;
22068;SDS011;13887;57.196;-2.100;2023-08-24T03:06:43;12.30;;;11.90;;
22068;SDS011;13887;57.196;-2.100;2023-08-24T03:09:11;12.63;;;12.23;;
22068;SDS011;13887;57.196;-2.100;2023-08-24T03:11:40;12.10;;;11.70;;
22068;SDS011;13887;57.196;-2.100;2023-08-24T03:14:07;12.20;;;11.80;;
22068;SDS011;13887;57.196;-2.100;2023-08-24T03:16:37;11.90;;;11.50;;
22068;SDS011;13887;57.196;-2.100;2023-08-24T03:19:05;12.60;;;12.20;;
22068;SDS011;13887;57.196;-2.100;2023-08-24T03:21:34;12.27;;;11.87;;
22068;SDS011;13887;57.196;-2.100;2023-08-24T03:24:01;12.30;;;11.90;;
22068;SDS011;13887;57.196;-2.100;2023-08-24T03:26:31;12.33;;;11.93;;
22068;SDS011;13887;57.196;-2.100;2023-08-24T03:28:58;12.70;;;12.30;;
22068;SDS011;13887;57.196;-2.100;2023-08-24T03:31:26;12.07;;;11.67;;
22068;SDS011;13887;57.196;-2.100;2023-08-24T03:33:54;12.30;;;11.90;;
22068;SDS011;13887;57.196;-2.100;2023-08-24T03:36:21;12.20;;;11.80;;
22068;SDS011;13887;57.196;-2.100;2023-08-24T03:38:49;12.43;;;12.03;;
22068;SDS011;13887;57.196;-2.100;2023-08-24T03:41:18;12.23;;;11.83;;
22068;SDS011;13887;57.196;-2.100;2023-08-24T03:43:45;12.10;;;11.70;;
22068;SDS011;13887;57.196;-2.100;2023-08-24T03:46:13;11.83;;;11.43;;
22068;SDS011;13887;57.196;-2.100;2023-08-24T03:48:43;12.23;;;11.83;;
22068;SDS011;13887;57.196;-2.100;2023-08-24T03:51:11;12.50;;;12.10;;
22068;SDS011;13887;57.196;-2.100;2023-08-24T03:53:38;12.20;;;11.80;;
22068;SDS011;13887;57.196;-2.100;2023-08-24T03:56:06;12.10;;;11.70;;
22068;SDS011;13887;57.196;-2.100;2023-08-24T03:58:33;12.10;;;11.70;;
22068;SDS011;13887;57.196;-2.100;2023-08-24T04:01:04;12.20;;;11.80;;
22068;SDS011;13887;57.196;-2.100;2023-08-24T04:03:34;12.00;;;11.60;;
22068;SDS011;13887;57.196;-2.100;2023-08-24T04:06:01;12.30;;;11.90;;
22068;SDS011;13887;57.196;-2.100;2023-08-24T04:08:29;12.23;;;11.83;;
22068;SDS011;13887;57.196;-2.100;2023-08-24T04:10:56;12.17;;;11.77;;
22068;SDS011;13887;57.196;-2.100;2023-08-24T04:13:24;12.30;;;11.90;;
22068;SDS011;13887;57.196;-2.100;2023-08-24T04:15:51;12.23;;;11.83;;
22068;SDS011;13887;57.196;-2.100;2023-08-24T04:18:19;12.53;;;12.13;;
22068;SDS011;13887;57.196;-2.100;2023-08-24T04:20:47;12.67;;;12.27;;
22068;SDS011;13887;57.196;-2.100;2023-08-24T04:23:16;12.60;;;12.20;;
22068;SDS011;13887;57.196;-2.100;2023-08-24T04:25:44;12.83;;;12.43;;
22068;SDS011;13887;57.196;-2.100;2023-08-24T04:28:12;12.57;;;12.17;;
22068;SDS011;13887;57.196;-2.100;2023-08-24T04:30:39;12.80;;;12.40;;
22068;SDS011;13887;57.196;-2.100;2023-08-24T04:33:07;12.30;;;11.90;;
22068;SDS011;13887;57.196;-2.100;2023-08-24T04:35:35;12.03;;;11.63;;
22068;SDS011;13887;57.196;-2.100;2023-08-24T04:38:03;12.20;;;11.80;;
22068;SDS011;13887;57.196;-2.100;2023-08-24T04:40:38;12.17;;;11.77;;
22068;SDS011;13887;57.196;-2.100;2023-08-24T04:43:17;11.73;;;11.33;;
22068;SDS011;13887;57.196;-2.100;2023-08-24T04:45:45;12.10;;;11.70;;
22068;SDS011;13887;57.196;-2.100;2023-08-24T04:48:19;11.70;;;11.30;;
22068;SDS011;13887;57.196;-2.100;2023-08-24T04:50:47;12.23;;;11.83;;
22068;SDS011;13887;57.196;-2.100;2023-08-24T04:53:16;12.23;;;11.83;;
22068;SDS011;13887;57.196;-2.100;2023-08-24T04:55:45;11.97;;;11.57;;
22068;SDS011;13887;57.196;-2.100;2023-08-24T04:58:13;12.67;;;12.27;;
22068;SDS011;13887;57.196;-2.100;2023-08-24T05:00:40;12.47;;;12.07;;
22068;SDS011;13887;57.196;-2.100;2023-08-24T05:03:08;13.00;;;12.60;;
22068;SDS011;13887;57.196;-2.100;2023-08-24T05:05:37;12.87;;;12.47;;
22068;SDS011;13887;57.196;-2.100;2023-08-24T05:08:05;13.20;;;12.80;;
22068;SDS011;13887;57.196;-2.100;2023-08-24T05:10:39;13.17;;;12.77;;
22068;SDS011;13887;57.196;-2.100;2023-08-24T05:13:06;13.07;;;12.67;;
22068;SDS011;13887;57.196;-2.100;2023-08-24T05:15:34;12.93;;;12.53;;
22068;SDS011;13887;57.196;-2.100;2023-08-24T05:18:01;12.97;;;12.57;;
22068;SDS011;13887;57.196;-2.100;2023-08-24T05:20:29;13.07;;;12.67;;
22068;SDS011;13887;57.196;-2.100;2023-08-24T05:22:56;12.80;;;12.40;;
22068;SDS011;13887;57.196;-2.100;2023-08-24T05:25:24;13.50;;;13.00;;
22068;SDS011;13887;57.196;-2.100;2023-08-24T05:27:52;13.50;;;13.00;;
22068;SDS011;13887;57.196;-2.100;2023-08-24T05:30:19;13.03;;;12.63;;
22068;SDS011;13887;57.196;-2.100;2023-08-24T05:32:46;13.13;;;12.73;;
22068;SDS011;13887;57.196;-2.100;2023-08-24T05:35:14;13.10;;;12.70;;
22068;SDS011;13887;57.196;-2.100;2023-08-24T05:37:41;12.50;;;12.10;;
22068;SDS011;13887;57.196;-2.100;2023-08-24T05:40:09;12.80;;;12.40;;
22068;SDS011;13887;57.196;-2.100;2023-08-24T05:42:36;12.93;;;12.53;;
22068;SDS011;13887;57.196;-2.100;2023-08-24T05:45:04;12.57;;;12.17;;
22068;SDS011;13887;57.196;-2.100;2023-08-24T05:47:32;12.70;;;12.30;;
22068;SDS011;13887;57.196;-2.100;2023-08-24T05:49:59;13.00;;;12.60;;
22068;SDS011;13887;57.196;-2.100;2023-08-24T05:52:26;12.60;;;12.20;;
22068;SDS011;13887;57.196;-2.100;2023-08-24T05:54:54;12.90;;;12.50;;
22068;SDS011;13887;57.196;-2.100;2023-08-24T05:57:21;12.70;;;12.30;;
22068;SDS011;13887;57.196;-2.100;2023-08-24T05:59:48;12.67;;;12.27;;
22068;SDS011;13887;57.196;-2.100;2023-08-24T06:02:16;13.00;;;12.60;;
22068;SDS011;13887;57.196;-2.100;2023-08-24T06:04:43;12.73;;;12.33;;
22068;SDS011;13887;57.196;-2.100;2023-08-24T06:07:10;12.67;;;12.27;;
22068;SDS011;13887;57.196;-2.100;2023-08-24T06:09:38;13.00;;;12.60;;
22068;SDS011;13887;57.196;-2.100;2023-08-24T06:12:05;12.77;;;12.37;;
22068;SDS011;13887;57.196;-2.100;2023-08-24T06:14:33;12.90;;;12.50;;
22068;SDS011;13887;57.196;-2.100;2023-08-24T06:17:02;12.87;;;12.47;;
22068;SDS011;13887;57.196;-2.100;2023-08-24T06:19:30;12.90;;;12.50;;
22068;SDS011;13887;57.196;-2.100;2023-08-24T06:21:57;13.10;;;12.70;;
22068;SDS011;13887;57.196;-2.100;2023-08-24T06:24:25;12.93;;;12.53;;
22068;SDS011;13887;57.196;-2.100;2023-08-24T06:26:52;13.13;;;12.73;;
22068;SDS011;13887;57.196;-2.100;2023-08-24T06:29:19;13.17;;;12.77;;
22068;SDS011;13887;57.196;-2.100;2023-08-24T06:31:46;13.27;;;12.83;;
22068;SDS011;13887;57.196;-2.100;2023-08-24T06:34:14;13.37;;;12.90;;
22068;SDS011;13887;57.196;-2.100;2023-08-24T06:36:41;12.73;;;12.33;;
22068;SDS011;13887;57.196;-2.100;2023-08-24T06:39:09;12.90;;;12.50;;
22068;SDS011;13887;57.196;-2.100;2023-08-24T06:41:36;13.03;;;12.63;;
22068;SDS011;13887;57.196;-2.100;2023-08-24T06:44:06;13.23;;;12.80;;
22068;SDS011;13887;57.196;-2.100;2023-08-24T06:46:33;12.80;;;12.40;;
22068;SDS011;13887;57.196;-2.100;2023-08-24T06:49:01;12.80;;;12.40;;
22068;SDS011;13887;57.196;-2.100;2023-08-24T06:51:28;13.17;;;12.77;;
22068;SDS011;13887;57.196;-2.100;2023-08-24T06:53:55;12.93;;;12.53;;
22068;SDS011;13887;57.196;-2.100;2023-08-24T06:56:23;12.43;;;12.03;;
22068;SDS011;13887;57.196;-2.100;2023-08-24T06:58:52;13.20;;;12.80;;
22068;SDS011;13887;57.196;-2.100;2023-08-24T07:01:19;13.10;;;12.70;;
22068;SDS011;13887;57.196;-2.100;2023-08-24T07:03:47;13.20;;;12.80;;
22068;SDS011;13887;57.196;-2.100;2023-08-24T07:06:14;12.87;;;12.47;;
22068;SDS011;13887;57.196;-2.100;2023-08-24T07:08:42;13.00;;;12.60;;
22068;SDS011;13887;57.196;-2.100;2023-08-24T07:11:09;12.87;;;12.47;;
22068;SDS011;13887;57.196;-2.100;2023-08-24T07:13:37;12.80;;;12.40;;
22068;SDS011;13887;57.196;-2.100;2023-08-24T07:16:04;12.80;;;12.40;;
22068;SDS011;13887;57.196;-2.100;2023-08-24T07:18:31;12.43;;;12.03;;
22068;SDS011;13887;57.196;-2.100;2023-08-24T07:20:59;12.70;;;12.30;;
22068;SDS011;13887;57.196;-2.100;2023-08-24T07:23:26;12.70;;;12.30;;
22068;SDS011;13887;57.196;-2.100;2023-08-24T07:25:53;13.03;;;12.63;;
22068;SDS011;13887;57.196;-2.100;2023-08-24T07:28:21;12.60;;;12.20;;
22068;SDS011;13887;57.196;-2.100;2023-08-24T07:30:48;12.80;;;12.40;;
22068;SDS011;13887;57.196;-2.100;2023-08-24T07:33:15;12.93;;;12.53;;
22068;SDS011;13887;57.196;-2.100;2023-08-24T07:35:43;12.57;;;12.17;;
22068;SDS011;13887;57.196;-2.100;2023-08-24T07:38:10;13.17;;;12.77;;
22068;SDS011;13887;57.196;-2.100;2023-08-24T07:40:37;12.60;;;12.20;;
22068;SDS011;13887;57.196;-2.100;2023-08-24T07:43:05;12.93;;;12.53;;
22068;SDS011;13887;57.196;-2.100;2023-08-24T07:45:32;12.77;;;12.37;;
22068;SDS011;13887;57.196;-2.100;2023-08-24T07:48:00;12.70;;;12.30;;
22068;SDS011;13887;57.196;-2.100;2023-08-24T07:50:30;12.70;;;12.30;;
22068;SDS011;13887;57.196;-2.100;2023-08-24T07:52:57;12.43;;;12.03;;
22068;SDS011;13887;57.196;-2.100;2023-08-24T07:55:25;12.80;;;12.40;;
22068;SDS011;13887;57.196;-2.100;2023-08-24T07:57:52;12.60;;;12.20;;
22068;SDS011;13887;57.196;-2.100;2023-08-24T08:00:20;12.47;;;12.07;;
22068;SDS011;13887;57.196;-2.100;2023-08-24T08:02:50;12.70;;;12.30;;
22068;SDS011;13887;57.196;-2.100;2023-08-24T08:05:18;12.43;;;12.03;;
22068;SDS011;13887;57.196;-2.100;2023-08-24T08:07:45;12.40;;;12.00;;
22068;SDS011;13887;57.196;-2.100;2023-08-24T08:10:12;12.47;;;12.07;;
22068;SDS011;13887;57.196;-2.100;2023-08-24T08:12:40;12.57;;;12.17;;
22068;SDS011;13887;57.196;-2.100;2023-08-24T08:15:08;12.63;;;12.23;;
22068;SDS011;13887;57.196;-2.100;2023-08-24T08:17:35;12.90;;;12.50;;
22068;SDS011;13887;57.196;-2.100;2023-08-24T08:20:03;13.00;;;12.60;;
22068;SDS011;13887;57.196;-2.100;2023-08-24T08:22:31;12.90;;;12.50;;
22068;SDS011;13887;57.196;-2.100;2023-08-24T08:25:05;13.17;;;12.77;;
22068;SDS011;13887;57.196;-2.100;2023-08-24T08:27:33;13.03;;;12.63;;
22068;SDS011;13887;57.196;-2.100;2023-08-24T08:30:01;13.10;;;12.70;;
22068;SDS011;13887;57.196;-2.100;2023-08-24T08:32:32;12.70;;;12.30;;
22068;SDS011;13887;57.196;-2.100;2023-08-24T08:34:59;13.10;;;12.70;;
22068;SDS011;13887;57.196;-2.100;2023-08-24T08:37:30;12.83;;;12.43;;
22068;SDS011;13887;57.196;-2.100;2023-08-24T08:39:58;12.90;;;12.50;;
22068;SDS011;13887;57.196;-2.100;2023-08-24T08:42:29;13.00;;;12.60;;
22068;SDS011;13887;57.196;-2.100;2023-08-24T08:44:56;12.80;;;12.40;;
22068;SDS011;13887;57.196;-2.100;2023-08-24T08:47:24;13.20;;;12.80;;
22068;SDS011;13887;57.196;-2.100;2023-08-24T08:49:51;12.60;;;12.20;;
22068;SDS011;13887;57.196;-2.100;2023-08-24T08:52:21;12.23;;;11.83;;
22068;SDS011;13887;57.196;-2.100;2023-08-24T08:54:48;12.77;;;12.37;;
22068;SDS011;13887;57.196;-2.100;2023-08-24T08:57:15;12.60;;;12.20;;
22068;SDS011;13887;57.196;-2.100;2023-08-24T08:59:44;12.93;;;12.53;;
22068;SDS011;13887;57.196;-2.100;2023-08-24T09:02:14;13.10;;;12.70;;
22068;SDS011;13887;57.196;-2.100;2023-08-24T09:04:45;13.30;;;12.90;;
22068;SDS011;13887;57.196;-2.100;2023-08-24T09:07:14;13.57;;;13.07;;
22068;SDS011;13887;57.196;-2.100;2023-08-24T09:09:42;13.37;;;12.87;;
22068;SDS011;13887;57.196;-2.100;2023-08-24T09:12:10;13.10;;;12.70;;
22068;SDS011;13887;57.196;-2.100;2023-08-24T09:14:38;12.70;;;12.30;;
22068;SDS011;13887;57.196;-2.100;2023-08-24T09:17:06;12.67;;;12.27;;
22068;SDS011;13887;57.196;-2.100;2023-08-24T09:19:34;13.20;;;12.80;;
22068;SDS011;13887;57.196;-2.100;2023-08-24T09:22:05;13.07;;;12.67;;
22068;SDS011;13887;57.196;-2.100;2023-08-24T09:24:35;12.73;;;12.33;;
22068;SDS011;13887;57.196;-2.100;2023-08-24T09:27:21;13.00;;;12.60;;
22068;SDS011;13887;57.196;-2.100;2023-08-24T09:29:49;13.40;;;12.90;;
22068;SDS011;13887;57.196;-2.100;2023-08-24T09:32:23;12.80;;;12.40;;
22068;SDS011;13887;57.196;-2.100;2023-08-24T09:34:54;13.00;;;12.60;;
22068;SDS011;13887;57.196;-2.100;2023-08-24T09:37:22;12.67;;;12.27;;
22068;SDS011;13887;57.196;-2.100;2023-08-24T09:39:50;13.70;;;13.20;;
22068;SDS011;13887;57.196;-2.100;2023-08-24T09:42:29;13.17;;;12.77;;
22068;SDS011;13887;57.196;-2.100;2023-08-24T09:45:08;13.07;;;12.67;;
22068;SDS011;13887;57.196;-2.100;2023-08-24T09:47:44;13.20;;;12.80;;
22068;SDS011;13887;57.196;-2.100;2023-08-24T09:50:12;12.90;;;12.50;;
22068;SDS011;13887;57.196;-2.100;2023-08-24T09:52:40;12.97;;;12.57;;
22068;SDS011;13887;57.196;-2.100;2023-08-24T09:55:11;13.00;;;12.60;;
22068;SDS011;13887;57.196;-2.100;2023-08-24T09:57:42;12.87;;;12.47;;
22068;SDS011;13887;57.196;-2.100;2023-08-24T10:00:10;12.87;;;12.47;;
22068;SDS011;13887;57.196;-2.100;2023-08-24T10:02:50;12.90;;;12.50;;
22068;SDS011;13887;57.196;-2.100;2023-08-24T10:05:22;12.63;;;12.23;;
22068;SDS011;13887;57.196;-2.100;2023-08-24T10:08:07;12.53;;;12.13;;
22068;SDS011;13887;57.196;-2.100;2023-08-24T10:10:36;12.97;;;12.57;;
22068;SDS011;13887;57.196;-2.100;2023-08-24T10:13:08;12.70;;;12.30;;
22068;SDS011;13887;57.196;-2.100;2023-08-24T10:15:43;12.90;;;12.50;;
22068;SDS011;13887;57.196;-2.100;2023-08-24T10:18:14;12.87;;;12.47;;
22068;SDS011;13887;57.196;-2.100;2023-08-24T10:20:43;12.40;;;12.00;;
22068;SDS011;13887;57.196;-2.100;2023-08-24T10:23:12;12.83;;;12.43;;
22068;SDS011;13887;57.196;-2.100;2023-08-24T10:25:42;12.87;;;12.47;;
22068;SDS011;13887;57.196;-2.100;2023-08-24T10:28:13;12.90;;;12.50;;
22068;SDS011;13887;57.196;-2.100;2023-08-24T10:30:43;12.67;;;12.27;;
22068;SDS011;13887;57.196;-2.100;2023-08-24T10:33:13;12.43;;;12.03;;
22068;SDS011;13887;57.196;-2.100;2023-08-24T10:35:42;12.67;;;12.27;;
22068;SDS011;13887;57.196;-2.100;2023-08-24T10:38:22;12.73;;;12.33;;
22068;SDS011;13887;57.196;-2.100;2023-08-24T10:40:54;12.57;;;12.17;;
22068;SDS011;13887;57.196;-2.100;2023-08-24T10:43:28;12.67;;;12.27;;
22068;SDS011;13887;57.196;-2.100;2023-08-24T10:48:30;12.63;;;12.23;;
22068;SDS011;13887;57.196;-2.100;2023-08-24T10:51:18;12.50;;;12.10;;
22068;SDS011;13887;57.196;-2.100;2023-08-24T10:53:53;12.60;;;12.20;;
22068;SDS011;13887;57.196;-2.100;2023-08-24T10:56:31;12.20;;;11.80;;
22068;SDS011;13887;57.196;-2.100;2023-08-24T10:59:16;12.17;;;11.77;;
22068;SDS011;13887;57.196;-2.100;2023-08-24T11:04:22;12.13;;;11.73;;
22068;SDS011;13887;57.196;-2.100;2023-08-24T11:09:25;12.70;;;12.30;;
22068;SDS011;13887;57.196;-2.100;2023-08-24T11:12:11;12.10;;;11.70;;
22068;SDS011;13887;57.196;-2.100;2023-08-24T11:14:48;12.60;;;12.20;;
22068;SDS011;13887;57.196;-2.100;2023-08-24T11:17:18;12.30;;;11.90;;
22068;SDS011;13887;57.196;-2.100;2023-08-24T11:19:53;12.60;;;12.20;;
22068;SDS011;13887;57.196;-2.100;2023-08-24T11:22:23;12.43;;;12.03;;
22068;SDS011;13887;57.196;-2.100;2023-08-24T11:24:52;12.30;;;11.90;;
22068;SDS011;13887;57.196;-2.100;2023-08-24T11:27:20;12.10;;;11.70;;
22068;SDS011;13887;57.196;-2.100;2023-08-24T11:29:57;12.23;;;11.83;;
22068;SDS011;13887;57.196;-2.100;2023-08-24T11:32:25;12.47;;;12.07;;
22068;SDS011;13887;57.196;-2.100;2023-08-24T11:34:52;12.53;;;12.13;;
22068;SDS011;13887;57.196;-2.100;2023-08-24T11:37:20;12.63;;;12.23;;
22068;SDS011;13887;57.196;-2.100;2023-08-24T11:39:47;12.63;;;12.23;;
22068;SDS011;13887;57.196;-2.100;2023-08-24T11:42:15;12.37;;;11.97;;
22068;SDS011;13887;57.196;-2.100;2023-08-24T11:44:46;12.23;;;11.83;;
22068;SDS011;13887;57.196;-2.100;2023-08-24T11:47:14;12.23;;;11.83;;
22068;SDS011;13887;57.196;-2.100;2023-08-24T11:49:42;12.57;;;12.17;;
22068;SDS011;13887;57.196;-2.100;2023-08-24T11:52:09;12.30;;;11.90;;
22068;SDS011;13887;57.196;-2.100;2023-08-24T11:54:37;12.23;;;11.83;;
22068;SDS011;13887;57.196;-2.100;2023-08-24T11:57:05;12.30;;;11.90;;
22068;SDS011;13887;57.196;-2.100;2023-08-24T11:59:36;12.40;;;12.00;;
22068;SDS011;13887;57.196;-2.100;2023-08-24T12:02:04;12.57;;;12.17;;
22068;SDS011;13887;57.196;-2.100;2023-08-24T12:04:39;12.63;;;12.23;;
22068;SDS011;13887;57.196;-2.100;2023-08-24T12:07:11;12.27;;;11.87;;
22068;SDS011;13887;57.196;-2.100;2023-08-24T12:09:39;12.30;;;11.90;;
22068;SDS011;13887;57.196;-2.100;2023-08-24T12:12:13;12.70;;;12.30;;
22068;SDS011;13887;57.196;-2.100;2023-08-24T12:14:42;12.80;;;12.40;;
22068;SDS011;13887;57.196;-2.100;2023-08-24T12:17:10;12.53;;;12.13;;
22068;SDS011;13887;57.196;-2.100;2023-08-24T12:19:57;12.80;;;12.40;;
22068;SDS011;13887;57.196;-2.100;2023-08-24T12:22:27;12.70;;;12.30;;
22068;SDS011;13887;57.196;-2.100;2023-08-24T12:24:56;12.97;;;12.57;;
22068;SDS011;13887;57.196;-2.100;2023-08-24T12:27:25;12.73;;;12.33;;
22068;SDS011;13887;57.196;-2.100;2023-08-24T12:29:53;12.83;;;12.43;;
22068;SDS011;13887;57.196;-2.100;2023-08-24T12:32:21;12.63;;;12.23;;
22068;SDS011;13887;57.196;-2.100;2023-08-24T12:34:52;12.50;;;12.10;;
22068;SDS011;13887;57.196;-2.100;2023-08-24T12:37:21;12.53;;;12.13;;
22068;SDS011;13887;57.196;-2.100;2023-08-24T12:39:49;12.37;;;11.97;;
22068;SDS011;13887;57.196;-2.100;2023-08-24T12:42:16;12.73;;;12.33;;
22068;SDS011;13887;57.196;-2.100;2023-08-24T12:44:44;12.77;;;12.37;;
22068;SDS011;13887;57.196;-2.100;2023-08-24T12:47:11;12.80;;;12.40;;
22068;SDS011;13887;57.196;-2.100;2023-08-24T12:49:38;12.90;;;12.50;;
22068;SDS011;13887;57.196;-2.100;2023-08-24T12:52:06;13.20;;;12.80;;
22068;SDS011;13887;57.196;-2.100;2023-08-24T12:54:34;12.73;;;12.33;;
22068;SDS011;13887;57.196;-2.100;2023-08-24T12:57:01;12.43;;;12.03;;
22068;SDS011;13887;57.196;-2.100;2023-08-24T12:59:29;12.40;;;12.00;;
22068;SDS011;13887;57.196;-2.100;2023-08-24T13:01:56;12.67;;;12.27;;
22068;SDS011;13887;57.196;-2.100;2023-08-24T13:04:23;12.50;;;12.10;;
22068;SDS011;13887;57.196;-2.100;2023-08-24T13:06:50;12.50;;;12.10;;
22068;SDS011;13887;57.196;-2.100;2023-08-24T13:09:18;12.47;;;12.07;;
22068;SDS011;13887;57.196;-2.100;2023-08-24T13:11:45;12.23;;;11.83;;
22068;SDS011;13887;57.196;-2.100;2023-08-24T13:14:12;12.03;;;11.63;;
22068;SDS011;13887;57.196;-2.100;2023-08-24T13:16:40;12.40;;;12.00;;
22068;SDS011;13887;57.196;-2.100;2023-08-24T13:19:08;12.37;;;11.97;;
22068;SDS011;13887;57.196;-2.100;2023-08-24T13:21:35;12.50;;;12.10;;
22068;SDS011;13887;57.196;-2.100;2023-08-24T13:24:03;12.40;;;12.00;;
22068;SDS011;13887;57.196;-2.100;2023-08-24T13:26:30;12.67;;;12.27;;
22068;SDS011;13887;57.196;-2.100;2023-08-24T13:28:58;12.67;;;12.27;;
22068;SDS011;13887;57.196;-2.100;2023-08-24T13:31:28;12.53;;;12.13;;
22068;SDS011;13887;57.196;-2.100;2023-08-24T13:33:57;12.40;;;12.00;;
22068;SDS011;13887;57.196;-2.100;2023-08-24T13:36:24;12.70;;;12.30;;
22068;SDS011;13887;57.196;-2.100;2023-08-24T13:38:51;12.70;;;12.30;;
22068;SDS011;13887;57.196;-2.100;2023-08-24T13:41:19;12.60;;;12.20;;
22068;SDS011;13887;57.196;-2.100;2023-08-24T13:43:48;12.50;;;12.10;;
22068;SDS011;13887;57.196;-2.100;2023-08-24T13:46:15;12.20;;;11.80;;
22068;SDS011;13887;57.196;-2.100;2023-08-24T13:48:43;12.70;;;12.30;;
22068;SDS011;13887;57.196;-2.100;2023-08-24T13:51:10;12.87;;;12.47;;
22068;SDS011;13887;57.196;-2.100;2023-08-24T13:53:39;12.67;;;12.27;;
22068;SDS011;13887;57.196;-2.100;2023-08-24T13:56:06;12.20;;;11.80;;
22068;SDS011;13887;57.196;-2.100;2023-08-24T13:58:34;13.43;;;12.93;;
22068;SDS011;13887;57.196;-2.100;2023-08-24T14:01:01;13.10;;;12.70;;
22068;SDS011;13887;57.196;-2.100;2023-08-24T14:03:30;12.80;;;12.40;;
22068;SDS011;13887;57.196;-2.100;2023-08-24T14:05:58;12.57;;;12.17;;
22068;SDS011;13887;57.196;-2.100;2023-08-24T14:08:25;12.60;;;12.20;;
22068;SDS011;13887;57.196;-2.100;2023-08-24T14:10:53;12.33;;;11.93;;
22068;SDS011;13887;57.196;-2.100;2023-08-24T14:13:21;13.00;;;12.60;;
22068;SDS011;13887;57.196;-2.100;2023-08-24T14:15:48;12.93;;;12.53;;
22068;SDS011;13887;57.196;-2.100;2023-08-24T14:18:17;12.77;;;12.37;;
22068;SDS011;13887;57.196;-2.100;2023-08-24T14:20:47;12.73;;;12.33;;
22068;SDS011;13887;57.196;-2.100;2023-08-24T14:23:14;12.70;;;12.30;;
22068;SDS011;13887;57.196;-2.100;2023-08-24T14:25:42;12.17;;;11.77;;
22068;SDS011;13887;57.196;-2.100;2023-08-24T14:28:09;12.30;;;11.90;;